createdAt,value
2023-02-11T00:02:24.267Z,40.13
2023-02-11T00:04:52.392Z,40.12
2023-02-11T00:07:20.511Z,40.04
2023-02-11T00:09:48.675Z,40.13
2023-02-11T00:12:19.707Z,40.02
2023-02-11T00:14:47.892Z,40.05
2023-02-11T00:17:16.125Z,40.06
2023-02-11T00:19:44.212Z,40.13
2023-02-11T00:22:12.335Z,40.19
2023-02-11T00:24:40.447Z,40.14
2023-02-11T00:27:08.541Z,40.08
2023-02-11T00:29:38.750Z,40.17
2023-02-11T00:32:09.012Z,40.13
2023-02-11T00:34:38.209Z,40.08
2023-02-11T00:37:06.785Z,40.06
2023-02-11T00:39:35.171Z,40.09
2023-02-11T00:42:03.357Z,40.06
2023-02-11T00:44:31.682Z,40.20
2023-02-11T00:47:01.194Z,40.23
2023-02-11T00:49:29.298Z,40.14
2023-02-11T00:51:57.453Z,40.12
2023-02-11T00:54:26.882Z,40.23
2023-02-11T00:56:55.917Z,40.26
2023-02-11T00:59:24.016Z,40.29
2023-02-11T01:01:52.090Z,40.09
2023-02-11T01:04:21.611Z,40.19
2023-02-11T01:06:49.699Z,40.21
2023-02-11T01:09:17.881Z,40.16
2023-02-11T01:11:45.966Z,40.22
2023-02-11T01:14:14.110Z,40.25
2023-02-11T01:16:42.283Z,40.35
2023-02-11T01:19:10.652Z,40.38
2023-02-11T01:21:40.127Z,40.19
2023-02-11T01:24:08.504Z,40.29
2023-02-11T01:26:36.602Z,40.24
2023-02-11T01:29:04.774Z,40.45
2023-02-11T01:31:33.197Z,40.19
2023-02-11T01:34:02.073Z,40.35
2023-02-11T01:36:30.200Z,40.36
2023-02-11T01:38:59.756Z,40.40
2023-02-11T01:41:27.895Z,40.36
2023-02-11T01:43:55.958Z,40.28
2023-02-11T01:46:35.454Z,40.47
2023-02-11T01:49:07.444Z,40.28
2023-02-11T01:51:39.925Z,40.33
2023-02-11T01:54:30.426Z,40.44
2023-02-11T01:57:18.448Z,40.32
2023-02-11T01:59:51.287Z,40.36
2023-02-11T02:02:24.161Z,40.28
2023-02-11T02:04:58.736Z,40.50
2023-02-11T02:07:33.860Z,40.32
2023-02-11T02:10:08.873Z,40.43
2023-02-11T02:12:37.122Z,40.45
2023-02-11T02:15:21.154Z,40.64
2023-02-11T02:17:58.909Z,40.57
2023-02-11T02:20:50.532Z,40.51
2023-02-11T02:23:40.309Z,40.69
2023-02-11T02:26:31.243Z,40.60
2023-02-11T02:29:38.246Z,40.80
2023-02-11T02:32:34.508Z,40.71
2023-02-11T02:35:11.583Z,40.37
2023-02-11T02:37:45.444Z,40.45
2023-02-11T02:40:18.748Z,40.23
2023-02-11T02:42:48.572Z,40.37
2023-02-11T02:45:17.739Z,40.47
2023-02-11T02:47:47.198Z,40.31
2023-02-11T02:50:19.066Z,40.36
2023-02-11T02:52:56.120Z,40.49
2023-02-11T02:55:45.036Z,40.66
2023-02-11T02:58:36.302Z,40.64
2023-02-11T03:01:14.570Z,40.42
2023-02-11T03:03:50.949Z,40.54
2023-02-11T03:06:25.272Z,40.41
2023-02-11T03:08:59.450Z,40.43
2023-02-11T03:11:29.232Z,40.55
2023-02-11T03:14:01.553Z,40.48
2023-02-11T03:16:31.060Z,40.38
2023-02-11T03:19:05.091Z,40.57
2023-02-11T03:21:35.422Z,40.60
2023-02-11T03:24:07.177Z,40.54
2023-02-11T03:26:41.683Z,40.51
2023-02-11T03:29:18.199Z,40.60
2023-02-11T03:31:54.760Z,40.55
2023-02-11T03:34:31.354Z,40.54
2023-02-11T03:37:04.462Z,40.61
2023-02-11T03:39:37.858Z,40.52
2023-02-11T03:42:08.760Z,40.44
2023-02-11T03:44:42.056Z,40.56
2023-02-11T03:47:15.400Z,40.54
2023-02-11T03:49:48.331Z,40.68
2023-02-11T03:52:18.248Z,40.43
2023-02-11T03:54:50.282Z,40.57
2023-02-11T03:57:18.502Z,40.54
2023-02-11T03:59:54.751Z,40.79
2023-02-11T04:02:25.268Z,40.57
2023-02-11T04:04:54.719Z,40.56
2023-02-11T04:07:22.907Z,40.60
2023-02-11T04:09:50.963Z,40.67
2023-02-11T04:12:19.313Z,40.63
2023-02-11T04:14:47.529Z,40.63
2023-02-11T04:17:15.583Z,40.69
2023-02-11T04:19:43.606Z,40.59
2023-02-11T04:22:13.055Z,40.63
2023-02-11T04:24:41.109Z,40.58
2023-02-11T04:27:09.119Z,40.64
2023-02-11T04:29:37.427Z,40.76
2023-02-11T04:32:05.652Z,40.65
2023-02-11T04:34:33.715Z,40.67
2023-02-11T04:37:01.805Z,40.66
2023-02-11T04:39:31.304Z,40.74
2023-02-11T04:41:59.440Z,40.63
2023-02-11T04:44:27.533Z,40.75
2023-02-11T04:46:55.752Z,40.73
2023-02-11T04:49:24.149Z,40.67
2023-02-11T04:51:52.256Z,40.67
2023-02-11T04:54:20.395Z,40.69
2023-02-11T04:56:51.251Z,40.60
2023-02-11T04:59:19.353Z,40.76
2023-02-11T05:01:47.435Z,40.61
2023-02-11T05:04:15.648Z,40.80
2023-02-11T05:06:43.860Z,40.70
2023-02-11T05:09:12.545Z,40.84
2023-02-11T05:11:40.814Z,40.80
2023-02-11T05:14:10.380Z,40.74
2023-02-11T05:16:38.494Z,40.71
2023-02-11T05:19:06.682Z,40.77
2023-02-11T05:21:35.156Z,40.68
2023-02-11T05:24:03.317Z,40.68
2023-02-11T05:26:31.449Z,40.75
2023-02-11T05:28:59.553Z,40.70
2023-02-11T05:31:29.148Z,40.79
2023-02-11T05:33:57.220Z,40.70
2023-02-11T05:36:25.332Z,40.70
2023-02-11T05:38:53.422Z,40.78
2023-02-11T05:41:21.554Z,40.72
2023-02-11T05:43:51.071Z,40.78
2023-02-11T05:46:19.763Z,40.80
2023-02-11T05:48:49.355Z,40.73
2023-02-11T05:51:17.424Z,40.78
2023-02-11T05:53:45.530Z,40.74
2023-02-11T05:56:14.637Z,40.73
2023-02-11T05:58:42.750Z,40.70
2023-02-11T06:01:10.892Z,40.84
2023-02-11T06:03:39.022Z,40.75
2023-02-11T06:06:11.552Z,40.77
2023-02-11T06:08:39.907Z,40.83
2023-02-11T06:11:08.072Z,40.79
2023-02-11T06:13:36.830Z,40.85
2023-02-11T06:16:05.509Z,40.90
2023-02-11T06:18:33.815Z,40.81
2023-02-11T06:21:02.116Z,40.91
2023-02-11T06:23:31.627Z,40.79
2023-02-11T06:26:03.598Z,40.93
2023-02-11T06:28:32.516Z,40.78
2023-02-11T06:31:06.600Z,40.81
2023-02-11T06:33:35.464Z,40.88
2023-02-11T06:36:04.465Z,40.82
2023-02-11T06:38:34.045Z,40.82
2023-02-11T06:41:02.106Z,40.79
2023-02-11T06:43:30.150Z,40.86
2023-02-11T06:45:58.182Z,40.82
2023-02-11T06:48:26.257Z,40.82
2023-02-11T06:50:54.302Z,40.87
2023-02-11T06:53:22.334Z,40.82
2023-02-11T06:55:52.032Z,40.79
2023-02-11T06:58:20.281Z,40.84
2023-02-11T07:00:48.304Z,40.82
2023-02-11T07:03:16.408Z,40.86
2023-02-11T07:05:44.771Z,40.82
2023-02-11T07:08:12.797Z,40.86
2023-02-11T07:10:41.113Z,40.86
2023-02-11T07:13:10.568Z,40.91
2023-02-11T07:15:38.715Z,40.91
2023-02-11T07:18:06.816Z,40.93
2023-02-11T07:20:35.018Z,40.84
2023-02-11T07:23:03.101Z,40.83
2023-02-11T07:25:31.259Z,40.80
2023-02-11T07:27:59.445Z,40.88
2023-02-11T07:30:29.017Z,40.91
2023-02-11T07:32:58.114Z,40.84
2023-02-11T07:35:26.163Z,40.89
2023-02-11T07:37:54.201Z,40.86
2023-02-11T07:40:22.383Z,40.95
2023-02-11T07:42:50.414Z,40.82
2023-02-11T07:45:18.578Z,41.07
2023-02-11T07:47:48.064Z,40.98
2023-02-11T07:50:17.019Z,40.93
2023-02-11T07:52:45.018Z,40.81
2023-02-11T07:55:13.111Z,40.85
2023-02-11T07:57:41.345Z,40.88
2023-02-11T08:00:10.396Z,40.79
2023-02-11T08:02:38.436Z,40.85
2023-02-11T08:05:08.482Z,40.83
2023-02-11T08:07:36.502Z,40.76
2023-02-11T08:10:05.802Z,40.79
2023-02-11T08:12:33.897Z,40.88
2023-02-11T08:15:01.996Z,40.82
2023-02-11T08:17:30.014Z,40.96
2023-02-11T08:19:58.041Z,40.86
2023-02-11T08:22:27.478Z,40.85
2023-02-11T08:24:57.154Z,40.83
2023-02-11T08:27:26.540Z,40.95
2023-02-11T08:29:55.188Z,40.90
2023-02-11T08:32:25.608Z,40.85
2023-02-11T08:34:53.879Z,40.85
2023-02-11T08:37:22.885Z,40.81
2023-02-11T08:39:52.407Z,40.78
2023-02-11T08:42:20.429Z,40.90
2023-02-11T08:44:48.512Z,40.82
2023-02-11T08:47:16.497Z,40.88
2023-02-11T08:49:44.522Z,40.95
2023-02-11T08:52:13.010Z,40.97
2023-02-11T08:54:40.994Z,40.89
2023-02-11T08:57:10.360Z,40.90
2023-02-11T08:59:40.092Z,40.90
2023-02-11T09:02:08.656Z,40.97
2023-02-11T09:04:37.250Z,40.94
2023-02-11T09:07:05.237Z,40.90
2023-02-11T09:09:33.254Z,40.88
2023-02-11T09:12:01.520Z,40.98
2023-02-11T09:14:30.947Z,40.94
2023-02-11T09:16:58.946Z,40.89
2023-02-11T09:19:26.969Z,41.08
2023-02-11T09:21:54.940Z,41.02
2023-02-11T09:24:22.930Z,41.04
2023-02-11T09:26:50.928Z,40.92
2023-02-11T09:29:19.073Z,40.84
2023-02-11T09:31:48.756Z,40.99
2023-02-11T09:34:16.872Z,40.82
2023-02-11T09:36:44.922Z,41.02
2023-02-11T09:39:15.489Z,41.02
2023-02-11T09:42:03.130Z,41.03
2023-02-11T09:44:34.088Z,40.91
2023-02-11T09:47:06.216Z,41.00
2023-02-11T09:49:41.047Z,40.93
2023-02-11T09:52:18.034Z,40.95
2023-02-11T09:54:55.703Z,40.97
2023-02-11T09:57:29.046Z,40.99
2023-02-11T09:59:58.375Z,40.99
2023-02-11T10:02:39.945Z,40.99
2023-02-11T10:05:26.890Z,41.30
2023-02-11T10:08:02.507Z,41.15
2023-02-11T10:10:44.842Z,41.27
2023-02-11T10:13:33.687Z,41.32
2023-02-11T10:16:11.246Z,41.09
2023-02-11T10:19:05.286Z,41.26
2023-02-11T10:21:43.803Z,41.12
2023-02-11T10:24:14.565Z,41.13
2023-02-11T10:26:44.686Z,41.18
2023-02-11T10:29:24.429Z,41.25
2023-02-11T10:31:53.358Z,41.24
2023-02-11T10:34:22.865Z,41.14
2023-02-11T10:36:51.069Z,41.09
2023-02-11T10:39:20.789Z,41.16
2023-02-11T10:41:54.163Z,41.13
2023-02-11T10:44:26.820Z,41.10
2023-02-11T10:46:56.798Z,41.26
2023-02-11T10:49:41.626Z,41.42
2023-02-11T10:52:30.617Z,41.52
2023-02-11T10:55:05.075Z,41.19
2023-02-11T10:57:36.878Z,41.29
2023-02-11T11:00:22.322Z,41.26
2023-02-11T11:02:56.378Z,41.18
2023-02-11T11:05:31.623Z,41.29
2023-02-11T11:08:01.892Z,41.22
2023-02-11T11:10:44.457Z,41.26
2023-02-11T11:13:31.318Z,41.57
2023-02-11T11:16:17.917Z,41.49
2023-02-11T11:18:47.615Z,41.13
2023-02-11T11:21:20.247Z,41.22
2023-02-11T11:23:51.454Z,41.11
2023-02-11T11:26:20.537Z,41.27
2023-02-11T11:28:58.529Z,41.21
2023-02-11T11:31:30.230Z,41.30
2023-02-11T11:34:00.567Z,41.12
2023-02-11T11:36:39.212Z,41.36
2023-02-11T11:39:21.120Z,41.50
2023-02-11T11:41:57.615Z,41.34
2023-02-11T11:44:32.224Z,41.38
2023-02-11T11:47:23.172Z,41.48
2023-02-11T11:50:03.145Z,41.39
2023-02-11T11:52:42.729Z,41.36
2023-02-11T11:55:18.562Z,41.31
2023-02-11T11:57:47.101Z,41.28
2023-02-11T12:00:18.138Z,41.29
2023-02-11T12:03:24.176Z,41.57
2023-02-11T12:06:08.260Z,41.33
2023-02-11T12:08:45.446Z,41.35
2023-02-11T12:11:21.986Z,41.34
2023-02-11T12:14:07.769Z,41.40
2023-02-11T12:16:45.896Z,41.42
2023-02-11T12:19:31.285Z,41.46
2023-02-11T12:22:10.801Z,41.27
2023-02-11T12:25:03.671Z,41.53
2023-02-11T12:27:46.386Z,41.38
2023-02-11T12:30:35.446Z,41.33
2023-02-11T12:33:15.104Z,41.22
2023-02-11T12:35:53.103Z,41.41
2023-02-11T12:39:00.353Z,41.67
2023-02-11T12:42:07.528Z,41.46
2023-02-11T12:44:47.136Z,41.42
2023-02-11T12:47:25.713Z,41.31
2023-02-11T12:50:07.816Z,41.53
2023-02-11T12:52:50.365Z,41.34
2023-02-11T12:55:24.437Z,41.38
2023-02-11T12:57:57.697Z,41.56
2023-02-11T13:00:32.525Z,41.59
2023-02-11T13:03:08.362Z,41.70
2023-02-11T13:05:41.641Z,41.73
2023-02-11T13:08:14.196Z,41.78
2023-02-11T13:10:44.777Z,41.78
2023-02-11T13:13:19.576Z,41.74
2023-02-11T13:15:51.860Z,41.90
2023-02-11T13:18:38.264Z,42.49
2023-02-11T13:21:23.455Z,42.50
2023-02-11T13:24:00.743Z,41.95
2023-02-11T13:26:34.650Z,41.67
2023-02-11T13:29:16.925Z,41.90
2023-02-11T13:31:54.580Z,41.78
2023-02-11T13:34:28.231Z,41.74
2023-02-11T13:36:57.700Z,41.61
2023-02-11T13:39:26.196Z,41.74
2023-02-11T13:42:04.431Z,41.73
2023-02-11T13:44:36.111Z,41.57
2023-02-11T13:47:06.997Z,41.59
2023-02-11T13:49:40.733Z,41.73
2023-02-11T13:52:23.884Z,41.70
2023-02-11T13:54:54.428Z,41.55
2023-02-11T13:57:41.092Z,41.81
2023-02-11T14:00:50.914Z,41.80
2023-02-11T14:03:47.364Z,41.74
2023-02-11T14:06:36.604Z,41.37
2023-02-11T14:09:37.119Z,41.92
2023-02-11T14:12:26.577Z,41.83
2023-02-11T14:15:06.027Z,41.67
2023-02-11T14:17:36.326Z,41.52
2023-02-11T14:20:50.900Z,41.84
2023-02-11T14:23:27.312Z,41.49
2023-02-11T14:26:04.411Z,41.56
2023-02-11T14:28:34.949Z,41.53
2023-02-11T14:31:10.757Z,41.56
2023-02-11T14:34:11.108Z,41.70
2023-02-11T14:36:52.805Z,41.65
2023-02-11T14:39:33.812Z,41.52
2023-02-11T14:42:03.818Z,41.60
2023-02-11T14:44:34.235Z,41.49
2023-02-11T14:47:02.406Z,41.64
2023-02-11T14:49:33.882Z,41.51
2023-02-11T14:52:08.623Z,41.57
2023-02-11T14:54:37.079Z,41.45
2023-02-11T14:57:14.340Z,41.56
2023-02-11T14:59:55.814Z,41.59
2023-02-11T15:02:26.388Z,41.52
2023-02-11T15:04:55.265Z,41.56
2023-02-11T15:07:24.900Z,41.42
2023-02-11T15:09:54.874Z,41.46
2023-02-11T15:12:26.531Z,41.44
2023-02-11T15:14:56.807Z,41.38
2023-02-11T15:17:27.396Z,41.49
2023-02-11T15:19:59.125Z,41.55
2023-02-11T15:22:33.077Z,41.39
2023-02-11T15:25:04.094Z,41.51
2023-02-11T15:27:41.230Z,41.45
2023-02-11T15:30:26.718Z,41.58
2023-02-11T15:32:58.945Z,41.58
2023-02-11T15:35:29.492Z,41.53
2023-02-11T15:38:00.199Z,41.46
2023-02-11T15:40:32.427Z,41.42
2023-02-11T15:43:03.779Z,41.55
2023-02-11T15:45:34.468Z,41.43
2023-02-11T15:48:09.336Z,41.63
2023-02-11T15:50:40.740Z,41.51
2023-02-11T15:53:27.054Z,41.69
2023-02-11T15:56:00.254Z,41.41
2023-02-11T15:58:28.642Z,41.53
2023-02-11T16:00:59.957Z,41.49
2023-02-11T16:03:33.009Z,41.35
2023-02-11T16:06:23.197Z,41.65
2023-02-11T16:09:07.151Z,41.73
2023-02-11T16:11:38.490Z,41.47
2023-02-11T16:14:23.369Z,41.56
2023-02-11T16:16:54.161Z,41.40
2023-02-11T16:19:25.578Z,41.37
2023-02-11T16:21:55.647Z,41.52
2023-02-11T16:24:29.190Z,41.43
2023-02-11T16:27:00.591Z,41.41
2023-02-11T16:29:30.942Z,41.55
2023-02-11T16:32:08.793Z,41.54
2023-02-11T16:34:37.208Z,41.59
2023-02-11T16:37:06.629Z,41.48
2023-02-11T16:39:36.250Z,41.42
2023-02-11T16:42:07.429Z,41.35
2023-02-11T16:44:36.145Z,41.43
2023-02-11T16:47:06.090Z,41.38
2023-02-11T16:49:36.947Z,41.41
2023-02-11T16:52:09.165Z,41.35
2023-02-11T16:54:38.666Z,41.43
2023-02-11T16:57:13.402Z,41.38
2023-02-11T16:59:41.483Z,41.38
2023-02-11T17:02:14.622Z,41.42
2023-02-11T17:04:42.905Z,41.38
2023-02-11T17:07:10.985Z,41.39
2023-02-11T17:09:40.490Z,41.24
2023-02-11T17:12:08.799Z,41.37
2023-02-11T17:14:36.834Z,41.38
2023-02-11T17:17:05.750Z,41.30
2023-02-11T17:19:33.833Z,41.20
2023-02-11T17:22:01.898Z,41.20
2023-02-11T17:24:29.998Z,41.58
2023-02-11T17:26:59.713Z,41.27
2023-02-11T17:29:27.807Z,41.25
2023-02-11T17:31:56.028Z,41.29
2023-02-11T17:34:24.417Z,41.27
2023-02-11T17:36:53.027Z,41.19
2023-02-11T17:39:21.286Z,41.22
2023-02-11T17:41:49.508Z,41.25
2023-02-11T17:44:19.163Z,41.21
2023-02-11T17:46:47.231Z,41.35
2023-02-11T17:49:15.824Z,41.15
2023-02-11T17:51:43.996Z,41.15
2023-02-11T17:54:14.095Z,41.25
2023-02-11T17:56:42.863Z,41.35
2023-02-11T17:59:12.264Z,41.29
2023-02-11T18:01:43.553Z,41.16
2023-02-11T18:04:15.710Z,41.29
2023-02-11T18:06:43.949Z,41.09
2023-02-11T18:09:12.341Z,41.13
2023-02-11T18:11:40.974Z,41.10
2023-02-11T18:14:09.285Z,41.14
2023-02-11T18:16:39.483Z,41.20
2023-02-11T18:19:09.087Z,41.09
2023-02-11T18:21:37.714Z,40.91
2023-02-11T18:24:07.306Z,41.12
2023-02-11T18:26:36.303Z,41.17
2023-02-11T18:29:07.076Z,41.18
2023-02-11T18:31:36.448Z,41.19
2023-02-11T18:34:05.990Z,41.23
2023-02-11T18:36:36.273Z,41.19
2023-02-11T18:39:05.165Z,41.21
2023-02-11T18:41:33.350Z,41.25
2023-02-11T18:44:03.304Z,41.34
2023-02-11T18:46:32.082Z,41.33
2023-02-11T18:49:00.180Z,41.14
2023-02-11T18:51:28.461Z,41.28
2023-02-11T18:53:57.942Z,41.16
2023-02-11T18:56:27.829Z,41.21
2023-02-11T18:58:57.321Z,41.19
2023-02-11T19:01:27.992Z,41.25
2023-02-11T19:03:57.518Z,41.22
2023-02-11T19:06:27.726Z,41.19
2023-02-11T19:09:00.286Z,41.25
2023-02-11T19:11:43.640Z,41.15
2023-02-11T19:14:12.254Z,41.14
2023-02-11T19:16:41.121Z,41.12
2023-02-11T19:19:09.307Z,41.11
2023-02-11T19:21:37.888Z,41.14
2023-02-11T19:24:09.679Z,41.11
2023-02-11T19:26:38.386Z,41.09
2023-02-11T19:29:07.250Z,41.08
2023-02-11T19:31:36.223Z,41.17
2023-02-11T19:34:04.758Z,41.09
2023-02-11T19:36:33.053Z,41.05
2023-02-11T19:39:01.843Z,41.02
2023-02-11T19:41:32.174Z,41.12
2023-02-11T19:44:00.655Z,41.05
2023-02-11T19:46:34.443Z,41.02
2023-02-11T19:49:02.962Z,41.04
2023-02-11T19:51:32.889Z,40.97
2023-02-11T19:54:01.481Z,41.08
2023-02-11T19:56:31.165Z,41.12
2023-02-11T19:58:59.658Z,41.05
2023-02-11T20:01:27.738Z,41.01
2023-02-11T20:03:57.845Z,41.01
2023-02-11T20:06:29.268Z,41.04
2023-02-11T20:08:59.121Z,40.95
2023-02-11T20:11:29.140Z,41.10
2023-02-11T20:13:59.516Z,40.98
2023-02-11T20:16:45.057Z,41.08
2023-02-11T20:19:18.088Z,41.07
2023-02-11T20:21:47.984Z,40.98
2023-02-11T20:24:16.633Z,41.04
2023-02-11T20:26:45.868Z,40.95
2023-02-11T20:29:15.628Z,40.93
2023-02-11T20:31:43.957Z,41.03
2023-02-11T20:34:12.756Z,40.94
2023-02-11T20:36:40.917Z,40.98
2023-02-11T20:39:09.347Z,41.09
2023-02-11T20:41:40.075Z,41.07
2023-02-11T20:44:09.971Z,40.98
2023-02-11T20:46:41.176Z,40.91
2023-02-11T20:49:09.369Z,40.97
2023-02-11T20:51:37.688Z,40.96
2023-02-11T20:54:07.242Z,41.06
2023-02-11T20:56:37.680Z,40.90
2023-02-11T20:59:07.088Z,40.96
2023-02-11T21:01:37.362Z,40.95
2023-02-11T21:04:09.176Z,40.92
2023-02-11T21:06:40.034Z,41.08
2023-02-11T21:09:10.337Z,40.98
2023-02-11T21:11:38.426Z,40.88
2023-02-11T21:14:07.770Z,40.89
2023-02-11T21:16:35.835Z,40.91
2023-02-11T21:19:04.045Z,41.02
2023-02-11T21:21:35.552Z,40.88
2023-02-11T21:24:03.754Z,40.95
2023-02-11T21:26:31.820Z,41.07
2023-02-11T21:28:59.910Z,40.83
2023-02-11T21:31:30.074Z,40.90
2023-02-11T21:33:59.640Z,40.99
2023-02-11T21:36:28.977Z,40.94
2023-02-11T21:38:58.752Z,40.94
2023-02-11T21:41:27.445Z,40.97
2023-02-11T21:43:55.765Z,40.93
2023-02-11T21:46:23.954Z,40.80
2023-02-11T21:48:52.327Z,40.88
2023-02-11T21:51:23.142Z,40.85
2023-02-11T21:53:55.336Z,40.92
2023-02-11T21:56:26.444Z,40.80
2023-02-11T21:58:55.890Z,40.78
2023-02-11T22:01:26.283Z,40.73
2023-02-11T22:03:54.751Z,40.89
2023-02-11T22:06:26.219Z,40.93
2023-02-11T22:08:55.468Z,40.77
2023-02-11T22:11:25.536Z,40.87
2023-02-11T22:13:56.365Z,40.81
2023-02-11T22:16:25.412Z,40.87
2023-02-11T22:18:53.535Z,40.88
2023-02-11T22:21:23.595Z,40.91
2023-02-11T22:23:52.618Z,40.86
2023-02-11T22:26:22.572Z,40.92
2023-02-11T22:28:53.771Z,40.90
2023-02-11T22:31:24.021Z,40.86
2023-02-11T22:33:52.311Z,40.76
2023-02-11T22:36:22.207Z,40.81
2023-02-11T22:38:51.098Z,40.79
2023-02-11T22:41:20.668Z,40.81
2023-02-11T22:43:48.844Z,40.74
2023-02-11T22:46:20.204Z,40.89
2023-02-11T22:48:49.155Z,40.90
2023-02-11T22:51:20.612Z,40.84
2023-02-11T22:53:53.077Z,40.76
2023-02-11T22:56:21.663Z,40.76
2023-02-11T22:58:50.603Z,40.81
2023-02-11T23:01:20.776Z,40.70
2023-02-11T23:03:48.846Z,40.84
2023-02-11T23:06:17.753Z,40.71
2023-02-11T23:08:46.135Z,40.70
2023-02-11T23:11:16.572Z,40.71
2023-02-11T23:13:46.316Z,40.73
2023-02-11T23:16:16.700Z,40.79
2023-02-11T23:18:47.075Z,40.83
2023-02-11T23:21:18.016Z,40.76
2023-02-11T23:23:46.589Z,40.71
2023-02-11T23:26:16.950Z,40.74
2023-02-11T23:28:46.110Z,40.79
2023-02-11T23:31:16.734Z,40.81
2023-02-11T23:33:46.769Z,40.76
2023-02-11T23:36:15.817Z,40.85
2023-02-11T23:38:46.575Z,40.71
2023-02-11T23:41:16.162Z,40.80
2023-02-11T23:43:44.392Z,40.58
2023-02-11T23:46:12.589Z,40.81
2023-02-11T23:48:41.114Z,40.73
2023-02-11T23:51:10.804Z,40.75
2023-02-11T23:53:39.099Z,40.73
2023-02-11T23:56:09.606Z,40.76
2023-02-11T23:58:38.125Z,40.66
